Houston, TX (77080)

2:45 PM CDT on September 01, 2014 (GMT -0500)
Spring Shadows Blk 1 | Change Station
CLOSE
Current Station
Personal Weather Station
Location: Houston, TX
Elevation: 118 ft
Nearby Weather Stations

Elev 118 ft 29.82 °N, 95.53 °W | Updated 0 second ago

Overcast
Overcast
97.2 °F
Feels Like 108 °F
N
1.1
Wind Variable Wind from NW
Gusts 1.1 mph

Today
High -- | Low -- °F
--% Chance of Precip.
Yesterday
High -- | Low -- °F
Precip. -- in
6:59 AM 7:44 PM
Waxing Crescent, 43% visible
Pressure 29.89 in
Visibility 10.0 miles
Clouds Mostly Cloudy 3800 ft
Mostly Cloudy 5000 ft
Heat Index 108 °F
Dew Point 74 °F
Humidity 47%
Rainfall 0.00 in
Snow Depth Not available.
UV 5 out of 12
Pollen 6.40 out of 12
Ozone Good
PM2.5 Moderate
Flu Activity Not available.
METAR KMCJ 011935Z AUTO 17008G19KT 040V030 10SM BKN038 BKN050 33/22 A2989 RMK AO1

More Conditions Fewer Conditions

Pressure 29.89 in
Visibility 10.0 miles
Clouds Mostly Cloudy 3800 ft
Mostly Cloudy 5000 ft
Heat Index 108 °F
Dew Point 74 °F
Humidity 47%
Rainfall 0.00 in
Snow Depth Not available.
UV 5 out of 12
Pollen 6.40 out of 12
Ozone Good
PM2.5 Moderate
Flu Activity Not available.
METAR KMCJ 011935Z AUTO 17008G19KT 040V030 10SM BKN038 BKN050 33/22 A2989 RMK AO1

More Conditions Fewer Conditions

10-Day Weather Forecast

Almanac

Astronomy

Sep. 01, 2014 Rise Set
Actual Time 6:59 AM CDT 7:44 PM CDT
Civil Twilight 6:34 AM CDT 8:08 PM CDT
Nautical Twilight 6:06 AM CDT 8:37 PM CDT
Astronomical Twilight 5:37 AM CDT 9:06 PM CDT
Moon 1:16 PM CDT No Moon Set
Length of Visible Light 13h 33m
Length of Day
12h 45m
Tomorrow will be 1m 43s shorter.
Waxing Crescent, 43% of the Moon is Illuminated
Today
Waxing Crescent
Sep 2
First Quarter
Sep 8
Full
Sep 15
Last Quarter
Sep 24
New

Today's Extremes

State Highs State Lows

Community

WunderPhotos

Upload Photos

1,749,387 photos uploaded!

WunderBlogs® & News

Nearby

Air Quality

  Air Quality AQ Index Pollutant
Yesterday Good
PM2.5
Yesterday Good
OZONE
Current Moderate
PM2.5
Current Good
OZONE
Monday Good
OZONE
Monday Good
PM10
Tuesday Good
OZONE
Tuesday Good
PM10
Wednesday Good
OZONE
Wednesday Good
PM10
Thursday Good
OZONE
Thursday Good
PM10

Snow Depth

Station Depth Elevation
No new snow has been reported.

Earthquake Activity

City Distance Mag. Time & Date
No recent earthquake activity has been reported nearby.
Minimum magnitude displayed is 2.5.

Coastal Water Temperatures

Place Temperature
Eagle Point, TX 84.9 °F
USCG Freeport, TX 84.0 °F
Galveston Pier TX 84.0 °F
Galveston Bay (North Jetty), TX 84.9 °F
Rollover Pass, TX 82.9 °F

Nearby Weather Stations